Time;durP1;ratioP1;P1;durP2;ratioP2;P2;SDS_P1;SDS_P2;PMS_P1;PMS_P2;Temp;Humidity;BMP_temperature;BMP_pressure;BME280_temperature;BME280_humidity;BME280_pressure;Samples;Min_cycle;Max_cycle;Signal;HPM_P1;HPM_P2
2023/07/20 00:02:17;;;;;;;6.90;3.10;;;;;;;18.27;100.00;99608.22;182173;1234;45878;-82
2023/07/20 00:06:18;;;;;;;5.40;1.70;;;;;;;18.25;100.00;99612.06;182344;1237;57756;-82
2023/07/20 00:10:20;;;;;;;6.10;2.70;;;;;;;18.02;100.00;99650.94;182674;1236;45946;-82
2023/07/20 00:14:22;;;;;;;5.10;2.70;;;;;;;17.99;100.00;99649.30;182318;1235;45963;-82
2023/07/20 00:18:24;;;;;;;5.40;3.30;;;;;;;17.97;100.00;99640.27;182448;1233;45916;-82
2023/07/20 00:22:26;;;;;;;8.40;2.80;;;;;;;18.06;100.00;99633.48;182410;1237;46125;-82
2023/07/20 00:26:27;;;;;;;27.00;3.20;;;;;;;18.08;100.00;99626.33;182566;1233;57516;-82
2023/07/20 00:30:29;;;;;;;13.70;3.30;;;;;;;18.16;100.00;99615.95;182580;1235;46088;-82
2023/07/20 00:34:31;;;;;;;8.90;3.40;;;;;;;18.29;100.00;99616.48;182200;1235;46092;-81
2023/07/20 00:38:33;;;;;;;12.40;2.90;;;;;;;18.41;100.00;99611.57;182258;1237;46014;-82
2023/07/20 00:42:34;;;;;;;6.00;2.50;;;;;;;18.56;100.00;99607.27;182452;1233;46046;-82
2023/07/20 00:46:36;;;;;;;4.50;2.30;;;;;;;18.71;100.00;99599.55;182381;1233;59092;-82
2023/07/20 00:50:39;;;;;;;7.80;2.60;;;;;;;18.76;100.00;99606.14;182408;1237;46074;-82
2023/07/20 00:54:42;;;;;;;29.00;2.80;;;;;;;18.80;100.00;99621.70;182289;1236;46066;-82
2023/07/20 00:58:44;;;;;;;4.00;2.70;;;;;;;18.83;100.00;99626.90;181711;1236;46030;-81
2023/07/20 01:02:46;;;;;;;6.80;2.50;;;;;;;18.77;100.00;99631.80;181864;1237;46522;-82
2023/07/20 01:07:09;;;;;;;5.70;3.80;;;;;;;18.71;100.00;99629.86;181570;1234;57881;-82
2023/07/20 01:11:28;;;;;;;7.40;2.60;;;;;;;18.67;100.00;99626.21;181693;1237;46636;-82
2023/07/20 01:15:30;;;;;;;4.30;1.80;;;;;;;18.63;100.00;99629.08;182275;1233;44857;-81
2023/07/20 01:19:32;;;;;;;5.60;3.20;;;;;;;18.60;100.00;99624.45;181956;1236;45994;-81
2023/07/20 01:24:11;;;;;;;7.60;2.80;;;;;;;18.46;100.00;99624.89;181369;1235;46033;-81
2023/07/20 01:28:44;;;;;;;5.20;2.20;;;;;;;18.30;100.00;99623.88;181924;1235;59811;-82
2023/07/20 01:32:48;;;;;;;4.30;2.10;;;;;;;18.25;100.00;99624.08;181717;1234;46085;-82
2023/07/20 01:36:52;;;;;;;6.90;2.80;;;;;;;18.13;100.00;99628.63;181684;1236;45982;-81
2023/07/20 01:40:54;;;;;;;7.50;3.80;;;;;;;18.04;100.00;99633.55;181894;1238;46068;-81
2023/07/20 01:44:56;;;;;;;10.80;4.10;;;;;;;18.01;100.00;99640.14;182264;1234;46013;-82
2023/07/20 01:48:58;;;;;;;7.90;2.60;;;;;;;17.91;100.00;99645.10;182128;1235;58433;-81
2023/07/20 01:52:59;;;;;;;4.50;2.60;;;;;;;17.86;100.00;99648.01;181789;1236;46413;-81
2023/07/20 01:57:01;;;;;;;7.10;2.70;;;;;;;17.81;100.00;99649.90;182769;1234;46050;-82
2023/07/20 02:01:02;;;;;;;7.30;3.50;;;;;;;17.76;100.00;99658.04;181753;1236;46087;-81
2023/07/20 02:05:04;;;;;;;5.80;2.80;;;;;;;17.71;100.00;99662.63;181662;1236;46182;-81
2023/07/20 02:09:06;;;;;;;15.20;3.30;;;;;;;17.69;100.00;99661.27;181686;1236;58307;-81
2023/07/20 02:13:07;;;;;;;7.40;3.70;;;;;;;17.65;100.00;99655.79;181750;1234;46055;-81
2023/07/20 02:17:10;;;;;;;5.80;3.10;;;;;;;17.65;100.00;99654.52;181721;1236;45928;-81
2023/07/20 02:21:12;;;;;;;6.50;3.30;;;;;;;17.64;100.00;99656.25;183424;1232;46091;-81
2023/07/20 02:25:13;;;;;;;14.90;3.70;;;;;;;17.66;100.00;99658.08;181931;1235;46063;-81
2023/07/20 02:29:15;;;;;;;8.60;3.80;;;;;;;17.66;100.00;99651.38;182213;1234;58213;-81
2023/07/20 02:33:16;;;;;;;3.80;2.60;;;;;;;17.61;100.00;99651.08;182130;1233;46062;-81
2023/07/20 02:37:18;;;;;;;6.00;3.50;;;;;;;17.55;100.00;99654.18;181441;1234;46055;-81
2023/07/20 02:41:20;;;;;;;5.90;3.40;;;;;;;17.47;100.00;99652.23;182181;1234;45975;-82
2023/07/20 02:45:21;;;;;;;9.00;4.50;;;;;;;17.43;100.00;99655.02;183482;1233;45869;-83
2023/07/20 02:49:23;;;;;;;5.40;2.90;;;;;;;17.38;100.00;99654.71;183049;1237;59176;-82
2023/07/20 02:53:25;;;;;;;5.90;3.40;;;;;;;17.34;100.00;99653.66;182912;1233;45985;-82
2023/07/20 02:57:27;;;;;;;10.10;4.30;;;;;;;17.32;100.00;99653.55;182893;1235;45983;-83
2023/07/20 03:01:31;;;;;;;5.40;3.40;;;;;;;17.28;100.00;99653.98;183096;1234;43947;-83
2023/07/20 03:05:33;;;;;;;10.40;5.60;;;;;;;17.26;100.00;99656.86;183479;1237;46391;-83
2023/07/20 03:09:35;;;;;;;6.40;3.60;;;;;;;17.15;100.00;99647.04;182978;1236;58434;-82
2023/07/20 03:13:37;;;;;;;7.80;5.20;;;;;;;16.87;100.00;99639.67;182805;1233;46024;-83
2023/07/20 03:17:38;;;;;;;10.60;4.60;;;;;;;16.68;100.00;99632.73;182814;1235;45981;-83
2023/07/20 03:21:41;;;;;;;7.30;4.20;;;;;;;16.67;100.00;99629.24;182876;1235;45965;-83
2023/07/20 03:25:42;;;;;;;8.80;4.60;;;;;;;16.62;100.00;99628.94;183522;1235;45914;-82
2023/07/20 03:29:44;;;;;;;7.20;3.90;;;;;;;16.66;100.00;99624.85;182615;1236;59509;-82
2023/07/20 03:33:46;;;;;;;6.60;4.60;;;;;;;16.71;100.00;99626.13;182367;1232;46139;-82
2023/07/20 03:37:47;;;;;;;5.80;4.70;;;;;;;16.78;100.00;99633.20;183793;1234;44828;-82
2023/07/20 03:41:49;;;;;;;6.90;4.50;;;;;;;16.86;100.00;99635.04;183504;1235;46092;-82
2023/07/20 03:45:51;;;;;;;9.80;5.40;;;;;;;16.96;100.00;99637.68;183588;1235;45975;-83
2023/07/20 03:49:53;;;;;;;9.80;5.80;;;;;;;17.10;100.00;99647.63;183216;1233;58125;-82
2023/07/20 03:53:55;;;;;;;13.20;5.20;;;;;;;17.22;100.00;99659.36;183436;1235;46083;-83
2023/07/20 03:57:57;;;;;;;6.80;5.20;;;;;;;17.45;100.00;99662.36;183146;1237;46084;-82
2023/07/20 04:01:59;;;;;;;8.10;5.00;;;;;;;17.70;100.00;99669.89;183335;1235;46123;-83
2023/07/20 04:06:01;;;;;;;8.50;6.20;;;;;;;17.92;100.00;99675.56;182992;1237;45956;-84
2023/07/20 04:10:03;;;;;;;17.80;7.10;;;;;;;18.06;100.00;99677.95;182736;1234;59654;-83
2023/07/20 04:14:05;;;;;;;10.90;5.10;;;;;;;18.19;100.00;99680.54;182855;1233;46067;-83
2023/07/20 04:18:06;;;;;;;11.90;4.60;;;;;;;18.18;100.00;99677.91;182894;1235;46129;-83
2023/07/20 04:22:08;;;;;;;15.30;5.40;;;;;;;18.11;100.00;99684.64;183241;1236;46029;-82
2023/07/20 04:26:12;;;;;;;6.70;4.10;;;;;;;18.07;100.00;99689.45;182955;1235;46061;-82
2023/07/20 04:30:19;;;;;;;8.50;5.20;;;;;;;18.07;100.00;99705.95;183379;1235;57962;-82
2023/07/20 04:34:21;;;;;;;13.70;5.50;;;;;;;18.23;100.00;99712.34;183261;1235;45950;-82
2023/07/20 04:38:23;;;;;;;6.30;4.50;;;;;;;18.81;100.00;99722.20;183216;1235;45972;-82
2023/07/20 04:42:25;;;;;;;11.60;4.00;;;;;;;18.95;100.00;99723.02;183586;1235;46119;-84
2023/07/20 04:46:27;;;;;;;9.60;4.90;;;;;;;18.55;100.00;99729.13;183697;1235;46040;-82
2023/07/20 04:50:29;;;;;;;9.20;5.20;;;;;;;18.31;100.00;99723.90;183761;1232;58208;-82
2023/07/20 04:54:31;;;;;;;13.50;5.30;;;;;;;18.13;100.00;99729.08;184048;1233;46128;-82
2023/07/20 04:58:32;;;;;;;9.40;5.50;;;;;;;17.96;100.00;99736.05;182682;1235;46081;-82
2023/07/20 05:02:34;;;;;;;15.60;5.80;;;;;;;17.93;100.00;99743.42;182885;1234;46035;-82
2023/07/20 05:06:36;;;;;;;23.00;7.20;;;;;;;17.98;100.00;99742.01;183016;1235;45989;-82
2023/07/20 05:10:38;;;;;;;10.80;4.90;;;;;;;18.04;100.00;99743.25;182597;1232;57990;-82
2023/07/20 05:14:41;;;;;;;9.70;5.20;;;;;;;18.12;100.00;99745.02;182815;1233;46011;-82
2023/07/20 05:18:43;;;;;;;15.20;5.90;;;;;;;18.21;100.00;99739.32;183173;1233;45997;-82
2023/07/20 05:22:45;;;;;;;8.40;5.20;;;;;;;18.32;100.00;99734.52;182602;1236;46161;-82
2023/07/20 05:26:48;;;;;;;10.90;5.80;;;;;;;18.31;100.00;99743.40;182956;1235;46013;-82
2023/07/20 05:30:51;;;;;;;17.60;6.00;;;;;;;18.51;100.00;99745.45;182935;1235;58448;-82
2023/07/20 05:34:54;;;;;;;6.10;4.90;;;;;;;18.56;100.00;99747.60;183344;1235;45956;-83
2023/07/20 05:38:56;;;;;;;9.70;5.20;;;;;;;18.38;100.00;99748.70;182752;1236;46129;-82
2023/07/20 05:42:58;;;;;;;9.40;4.60;;;;;;;18.39;100.00;99751.98;182946;1233;46115;-82
2023/07/20 05:47:00;;;;;;;10.30;5.10;;;;;;;18.25;100.00;99760.52;183048;1235;46068;-82
2023/07/20 05:51:02;;;;;;;9.20;4.20;;;;;;;18.22;100.00;99761.19;182901;1235;59608;-82
2023/07/20 05:55:04;;;;;;;9.80;4.80;;;;;;;18.19;100.00;99765.52;182709;1234;46077;-83
2023/07/20 05:59:06;;;;;;;10.10;6.10;;;;;;;18.22;100.00;99766.81;182634;1237;46150;-82
2023/07/20 06:03:08;;;;;;;8.80;5.90;;;;;;;18.20;100.00;99767.41;182759;1234;46432;-81
2023/07/20 06:07:10;;;;;;;5.60;5.00;;;;;;;18.56;100.00;99762.84;182925;1233;46060;-82
2023/07/20 06:11:12;;;;;;;6.60;5.50;;;;;;;19.19;100.00;99761.33;183504;1235;57356;-83
2023/07/20 06:15:28;;;;;;;10.00;6.00;;;;;;;19.69;100.00;99757.61;182888;1234;46062;-82
2023/07/20 06:19:30;;;;;;;7.40;4.30;;;;;;;19.98;100.00;99762.43;183435;1237;46071;-82
2023/07/20 06:23:31;;;;;;;8.00;4.50;;;;;;;19.83;100.00;99764.54;183271;1235;45981;-82
2023/07/20 06:27:33;;;;;;;8.60;4.20;;;;;;;19.65;100.00;99767.71;183077;1237;46167;-82
2023/07/20 06:31:36;;;;;;;7.50;4.70;;;;;;;19.49;100.00;99774.92;182970;1236;59624;-82
2023/07/20 06:35:42;;;;;;;4.00;3.60;;;;;;;19.39;100.00;99779.95;184014;1235;46075;-82
2023/07/20 06:39:44;;;;;;;4.00;3.20;;;;;;;19.54;100.00;99769.96;183180;1236;45931;-82
2023/07/20 06:43:50;;;;;;;4.90;3.00;;;;;;;19.85;100.00;99770.56;183002;1235;46074;-82
2023/07/20 06:47:52;;;;;;;3.90;3.20;;;;;;;20.14;100.00;99771.69;183253;1237;45997;-82
2023/07/20 06:51:53;;;;;;;7.00;3.30;;;;;;;20.63;100.00;99766.67;183387;1236;209651;-82
2023/07/20 06:55:57;;;;;;;3.30;3.00;;;;;;;20.89;98.26;99777.27;183333;1235;46109;-83
2023/07/20 06:59:58;;;;;;;3.30;3.00;;;;;;;20.88;93.23;99780.88;183654;1235;47112;-82
2023/07/20 07:04:00;;;;;;;3.50;3.10;;;;;;;21.04;92.52;99777.86;183585;1235;45965;-83
2023/07/20 07:08:04;;;;;;;3.80;3.30;;;;;;;21.34;93.20;99779.23;183964;1233;45898;-82
2023/07/20 07:12:06;;;;;;;4.10;3.70;;;;;;;21.36;91.81;99779.31;183793;1235;58147;-83
2023/07/20 07:16:07;;;;;;;4.50;4.10;;;;;;;21.25;92.04;99777.16;183575;1236;46082;-82
2023/07/20 07:20:11;;;;;;;2.90;2.50;;;;;;;21.54;91.43;99778.33;183646;1234;45948;-82
2023/07/20 07:24:21;;;;;;;4.80;3.60;;;;;;;22.05;87.04;99773.42;184202;1233;45968;-82
2023/07/20 07:28:22;;;;;;;6.20;3.90;;;;;;;21.66;87.16;99782.02;183722;1234;46009;-82
2023/07/20 07:32:24;;;;;;;5.40;3.80;;;;;;;21.59;89.80;99788.61;184033;1232;58788;-82
2023/07/20 07:36:26;;;;;;;3.70;3.30;;;;;;;21.13;87.98;99792.33;184255;1234;44598;-82
2023/07/20 07:40:28;;;;;;;2.80;2.50;;;;;;;21.16;89.75;99785.20;183559;1235;46025;-82
2023/07/20 07:44:30;;;;;;;4.70;3.60;;;;;;;21.65;86.78;99792.61;184269;1234;45991;-82
2023/07/20 07:48:32;;;;;;;4.40;3.90;;;;;;;22.01;84.12;99783.52;183896;1235;45045;-82
2023/07/20 07:52:33;;;;;;;3.30;2.20;;;;;;;21.88;82.03;99788.27;183907;1235;59730;-82
2023/07/20 07:56:35;;;;;;;3.80;2.50;;;;;;;21.30;83.94;99791.73;183956;1235;45150;-82
2023/07/20 08:00:37;;;;;;;3.90;3.00;;;;;;;21.18;85.76;99793.54;183850;1234;46103;-82
2023/07/20 08:04:39;;;;;;;3.80;2.60;;;;;;;21.47;85.06;99795.32;183893;1234;45995;-82
2023/07/20 08:08:40;;;;;;;2.90;2.60;;;;;;;21.75;82.50;99797.77;183947;1233;46203;-82
2023/07/20 08:12:43;;;;;;;6.70;2.60;;;;;;;22.16;80.58;99797.22;184124;1233;59192;-82
2023/07/20 08:16:45;;;;;;;3.60;2.80;;;;;;;22.47;79.12;99794.77;184096;1237;45899;-83
2023/07/20 08:20:49;;;;;;;9.40;3.00;;;;;;;22.12;78.90;99802.11;184720;1234;45905;-83
2023/07/20 08:24:50;;;;;;;2.10;1.90;;;;;;;22.27;78.67;99803.85;183971;1233;46235;-83
2023/07/20 08:28:52;;;;;;;5.40;2.00;;;;;;;22.27;76.67;99795.67;184255;1237;46158;-84
2023/07/20 08:32:54;;;;;;;4.70;2.30;;;;;;;22.36;74.75;99793.84;184587;1233;57928;-83
2023/07/20 08:36:57;;;;;;;1.80;1.70;;;;;;;22.56;75.03;99797.14;184269;1234;46005;-83
2023/07/20 08:40:59;;;;;;;8.90;2.80;;;;;;;22.64;73.04;99794.20;184347;1234;46103;-83
2023/07/20 08:45:07;;;;;;;1.40;1.30;;;;;;;22.55;73.74;99793.27;184386;1233;44483;-84
2023/07/20 08:49:11;;;;;;;3.90;2.00;;;;;;;22.38;72.05;99794.34;184214;1235;45838;-83
2023/07/20 08:53:14;;;;;;;4.00;1.80;;;;;;;22.65;72.82;99797.16;184649;1236;59158;-83
2023/07/20 08:57:17;;;;;;;2.90;1.50;;;;;;;23.02;72.60;99792.27;184720;1233;45969;-83
2023/07/20 09:01:22;;;;;;;7.20;1.60;;;;;;;23.09;70.01;99793.03;184664;1234;45915;-83
2023/07/20 09:05:24;;;;;;;3.20;1.70;;;;;;;23.33;69.97;99788.23;184630;1235;45934;-83
2023/07/20 09:09:27;;;;;;;2.00;1.10;;;;;;;23.06;68.86;99795.48;184440;1234;46093;-83
2023/07/20 09:13:29;;;;;;;3.90;1.80;;;;;;;23.01;69.21;99788.42;184441;1234;58076;-83
2023/07/20 09:17:32;;;;;;;2.00;1.40;;;;;;;23.32;67.71;99780.67;184541;1234;45972;-83
2023/07/20 09:21:35;;;;;;;1.20;1.10;;;;;;;23.59;67.11;99778.39;184572;1234;45854;-83
2023/07/20 09:25:37;;;;;;;2.40;1.60;;;;;;;23.90;66.22;99778.61;184659;1233;45985;-83
2023/07/20 09:29:49;;;;;;;1.80;1.30;;;;;;;23.92;65.89;99775.78;184917;1233;44661;-83
2023/07/20 09:33:53;;;;;;;2.00;1.40;;;;;;;23.54;66.92;99776.44;184797;1236;58325;-83
2023/07/20 09:38:00;;;;;;;3.60;1.50;;;;;;;23.67;68.32;99771.97;185116;1233;44610;-83
2023/07/20 09:42:05;;;;;;;1.50;1.40;;;;;;;23.55;69.39;99769.83;184762;1234;46045;-83
2023/07/20 09:46:10;;;;;;;1.70;1.50;;;;;;;23.74;68.83;99764.45;184848;1233;43896;-83
2023/07/20 09:50:12;;;;;;;4.10;1.80;;;;;;;23.71;67.51;99760.73;184781;1233;46007;-83
2023/07/20 09:54:17;;;;;;;2.30;2.10;;;;;;;23.74;64.17;99755.08;184763;1232;57971;-83
2023/07/20 09:58:19;;;;;;;4.40;2.70;;;;;;;23.80;64.26;99758.71;185092;1233;45971;-84
2023/07/20 10:02:29;;;;;;;2.30;2.10;;;;;;;24.14;64.55;99751.67;184796;1236;45934;-83
2023/07/20 10:06:33;;;;;;;2.20;1.80;;;;;;;24.28;62.89;99749.55;184914;1233;43666;-83
2023/07/20 10:10:38;;;;;;;4.60;2.80;;;;;;;24.19;60.73;99754.63;185116;1233;45966;-83
2023/07/20 10:14:48;;;;;;;2.50;2.40;;;;;;;24.32;61.27;99745.98;184988;1236;57876;-84
2023/07/20 10:19:00;;;;;;;2.20;2.10;;;;;;;24.67;61.58;99740.88;185072;1234;46051;-83
2023/07/20 10:23:02;;;;;;;3.00;1.80;;;;;;;24.87;60.65;99739.13;185059;1233;45948;-84
2023/07/20 10:27:05;;;;;;;5.10;2.50;;;;;;;24.54;63.23;99748.63;185017;1232;45992;-83
2023/07/20 10:31:09;;;;;;;2.90;2.10;;;;;;;24.10;65.35;99750.71;184888;1234;44534;-83
2023/07/20 10:35:16;;;;;;;4.40;3.30;;;;;;;23.72;67.79;99759.84;184715;1234;58150;-83
2023/07/20 10:39:28;;;;;;;8.60;3.50;;;;;;;23.28;73.02;99772.83;184504;1233;46240;-83
2023/07/20 10:43:30;;;;;;;4.70;2.80;;;;;;;22.88;75.43;99781.73;184640;1233;46115;-83
2023/07/20 10:47:46;;;;;;;7.10;3.70;;;;;;;22.31;84.47;99789.20;184529;1233;46178;-83
2023/07/20 10:51:58;;;;;;;3.80;2.60;;;;;;;21.19;92.18;99805.92;184484;1232;45870;-83
2023/07/20 10:56:15;;;;;;;12.60;4.00;;;;;;;20.00;96.09;99805.49;184049;1233;58136;-84
2023/07/20 11:00:19;;;;;;;5.70;3.10;;;;;;;19.16;100.00;99821.56;183525;1237;45974;-83
2023/07/20 11:04:39;;;;;;;6.40;4.20;;;;;;;18.77;100.00;99812.30;183497;1233;46187;-83
2023/07/20 11:08:42;;;;;;;12.40;5.20;;;;;;;18.79;100.00;99808.42;183216;1233;46084;-83
2023/07/20 11:13:21;;;;;;;5.60;3.20;;;;;;;18.91;100.00;99815.80;183243;1234;44606;-83
2023/07/20 11:17:32;;;;;;;3.70;3.30;;;;;;;19.36;100.00;99805.98;183114;1236;59368;-83
2023/07/20 11:21:41;;;;;;;4.00;3.50;;;;;;;19.56;100.00;99806.95;183197;1235;46080;-83
2023/07/20 11:26:03;;;;;;;8.40;4.70;;;;;;;19.52;100.00;99815.64;183450;1234;44760;-83
2023/07/20 11:30:16;;;;;;;4.70;3.40;;;;;;;19.23;100.00;99834.33;183312;1237;46102;-83
2023/07/20 11:34:19;;;;;;;7.30;3.60;;;;;;;18.97;100.00;99844.65;183150;1233;45880;-82
2023/07/20 11:38:21;;;;;;;10.00;5.30;;;;;;;18.67;100.00;99849.98;183011;1232;58288;-83
2023/07/20 11:42:29;;;;;;;10.30;3.70;;;;;;;18.49;100.00;99850.43;183085;1233;46078;-82
2023/07/20 11:46:35;;;;;;;7.10;3.50;;;;;;;18.54;100.00;99852.58;183129;1233;45973;-83
2023/07/20 11:50:40;;;;;;;10.00;4.80;;;;;;;18.57;100.00;99845.16;182866;1233;44046;-82
2023/07/20 11:54:43;;;;;;;4.30;3.90;;;;;;;18.57;100.00;99847.10;182912;1235;46004;-82
2023/07/20 11:58:50;;;;;;;3.20;2.90;;;;;;;18.72;100.00;99841.44;185315;1236;58105;-82
2023/07/20 12:02:53;;;;;;;3.70;3.40;;;;;;;18.98;100.00;99839.69;183347;1234;44236;-82
2023/07/20 12:06:55;;;;;;;4.00;3.50;;;;;;;19.11;100.00;99837.78;183629;1233;46255;-82
2023/07/20 12:10:57;;;;;;;5.60;4.80;;;;;;;19.37;100.00;99828.63;183046;1233;46075;-82
2023/07/20 12:15:16;;;;;;;4.30;3.60;;;;;;;19.64;100.00;99823.11;183256;1233;45980;-82
2023/07/20 12:19:18;;;;;;;8.70;6.20;;;;;;;19.99;100.00;99807.85;183317;1236;58030;-82
2023/07/20 12:23:19;;;;;;;4.20;3.80;;;;;;;20.45;100.00;99800.95;183413;1233;46571;-82
2023/07/20 12:27:21;;;;;;;5.00;3.60;;;;;;;20.84;100.00;99796.08;183579;1233;43866;-83
2023/07/20 12:31:24;;;;;;;6.30;3.60;;;;;;;21.35;100.00;99791.95;183567;1234;46244;-83
2023/07/20 12:35:29;;;;;;;4.00;3.00;;;;;;;21.69;100.00;99787.14;183843;1233;46082;-82
2023/07/20 12:39:31;;;;;;;4.00;3.40;;;;;;;21.86;98.68;99786.11;184033;1235;59562;-83
2023/07/20 12:43:33;;;;;;;10.70;2.80;;;;;;;22.18;96.77;99780.92;184291;1233;45870;-83
2023/07/20 12:47:35;;;;;;;3.10;1.70;;;;;;;22.33;93.34;99776.55;184495;1234;46263;-83
2023/07/20 12:51:36;;;;;;;2.60;1.70;;;;;;;22.26;87.06;99778.64;184206;1233;46010;-84
2023/07/20 12:55:39;;;;;;;3.60;2.40;;;;;;;22.42;91.83;99778.06;184200;1232;44384;-84
2023/07/20 12:59:41;;;;;;;2.10;1.90;;;;;;;22.78;92.84;99768.83;184001;1233;59836;-83
2023/07/20 13:03:42;;;;;;;1.70;1.60;;;;;;;23.13;92.57;99769.40;184599;1233;46008;-84
2023/07/20 13:07:47;;;;;;;2.10;2.00;;;;;;;23.35;85.67;99762.75;184949;1234;45876;-84
2023/07/20 13:11:52;;;;;;;1.40;1.30;;;;;;;23.58;85.31;99761.66;184460;1234;46117;-84
2023/07/20 13:15:55;;;;;;;1.20;1.10;;;;;;;23.60;81.57;99759.38;184777;1233;45895;-83
2023/07/20 13:19:56;;;;;;;1.50;1.10;;;;;;;23.76;79.35;99753.70;184492;1233;57968;-83
2023/07/20 13:23:58;;;;;;;1.00;0.90;;;;;;;23.89;76.81;99756.42;184420;1234;45915;-83
2023/07/20 13:27:59;;;;;;;1.40;1.00;;;;;;;24.12;74.33;99751.84;184726;1234;46125;-83
2023/07/20 13:32:05;;;;;;;1.40;1.30;;;;;;;24.35;73.84;99759.65;184666;1234;44451;-83
2023/07/20 13:36:06;;;;;;;1.40;1.20;;;;;;;24.51;70.19;99755.23;184893;1233;45957;-83
2023/07/20 13:40:13;;;;;;;1.30;1.10;;;;;;;24.69;68.86;99750.89;184789;1236;59395;-84
2023/07/20 13:44:14;;;;;;;0.90;0.60;;;;;;;24.72;68.02;99746.20;184440;1234;46010;-83
2023/07/20 13:48:22;;;;;;;2.40;0.90;;;;;;;24.92;66.42;99739.58;184748;1234;45285;-84
2023/07/20 13:52:28;;;;;;;1.00;0.80;;;;;;;25.10;65.12;99741.39;185746;1233;45957;-83
2023/07/20 13:56:33;;;;;;;1.20;0.50;;;;;;;25.04;62.98;99741.14;185328;1234;44337;-83
2023/07/20 14:00:34;;;;;;;1.00;0.90;;;;;;;25.07;63.68;99731.09;184830;1234;59776;-83
2023/07/20 14:04:36;;;;;;;1.30;0.90;;;;;;;25.19;62.98;99730.64;185055;1236;45673;-83
2023/07/20 14:08:38;;;;;;;1.30;0.60;;;;;;;25.24;61.68;99724.52;184858;1232;44732;-84
2023/07/20 14:12:39;;;;;;;1.00;0.60;;;;;;;25.40;59.85;99722.90;184847;1234;45986;-83
2023/07/20 14:16:41;;;;;;;0.50;0.50;;;;;;;25.34;61.01;99724.25;185040;1234;45957;-83
2023/07/20 14:20:44;;;;;;;0.70;0.50;;;;;;;25.46;60.89;99722.61;185275;1233;58322;-82
2023/07/20 14:24:45;;;;;;;1.60;1.40;;;;;;;25.58;57.43;99720.70;185472;1233;44470;-82
2023/07/20 14:28:47;;;;;;;0.60;0.60;;;;;;;25.83;56.97;99720.52;185572;1233;45886;-82
2023/07/20 14:32:49;;;;;;;11.50;0.80;;;;;;;25.87;57.16;99725.06;185515;1233;45986;-82
2023/07/20 14:36:52;;;;;;;1.70;1.10;;;;;;;25.94;55.76;99726.73;185714;1233;43525;-82
2023/07/20 14:40:54;;;;;;;0.60;0.60;;;;;;;25.75;55.95;99723.47;185509;1236;58324;-82
2023/07/20 14:44:55;;;;;;;2.90;0.90;;;;;;;25.99;57.76;99713.80;185412;1233;44550;-82
2023/07/20 14:48:57;;;;;;;1.60;0.80;;;;;;;25.85;55.20;99716.96;185026;1233;43770;-82
2023/07/20 14:52:58;;;;;;;1.50;1.30;;;;;;;25.76;55.83;99711.42;185416;1233;43615;-82
2023/07/20 14:57:13;;;;;;;2.20;0.50;;;;;;;25.89;57.18;99707.98;185577;1236;46018;-82
2023/07/20 15:01:15;;;;;;;1.70;0.90;;;;;;;26.08;55.05;99704.66;185286;1232;57780;-82
2023/07/20 15:05:23;;;;;;;1.90;0.60;;;;;;;26.23;55.08;99704.14;185444;1232;45090;-82
2023/07/20 15:09:25;;;;;;;2.30;0.90;;;;;;;26.38;54.41;99703.11;185409;1233;45968;-82
2023/07/20 15:13:27;;;;;;;0.50;0.40;;;;;;;26.23;54.34;99709.11;185450;1235;45952;-82
2023/07/20 15:17:29;;;;;;;1.00;0.60;;;;;;;25.86;54.82;99710.48;185407;1233;46007;-82
2023/07/20 15:21:31;;;;;;;1.90;0.80;;;;;;;25.52;56.10;99714.86;185366;1236;58239;-82
2023/07/20 15:25:33;;;;;;;3.40;0.50;;;;;;;25.21;57.50;99717.84;185186;1234;43469;-82
2023/07/20 15:29:35;;;;;;;1.80;0.80;;;;;;;24.79;56.85;99722.63;185606;1236;46145;-82
2023/07/20 15:33:37;;;;;;;0.90;0.60;;;;;;;24.50;57.92;99722.90;185258;1233;45324;-81
2023/07/20 15:37:39;;;;;;;2.10;1.30;;;;;;;24.27;59.42;99724.25;185281;1233;43940;-82
2023/07/20 15:41:40;;;;;;;2.50;1.10;;;;;;;24.03;60.05;99730.44;185351;1233;57790;-81
2023/07/20 15:45:46;;;;;;;0.80;0.60;;;;;;;23.91;60.13;99727.86;184692;1236;45979;-82
2023/07/20 15:49:48;;;;;;;0.90;0.70;;;;;;;23.81;59.96;99732.21;184853;1236;44741;-81
2023/07/20 15:53:49;;;;;;;1.50;0.80;;;;;;;23.78;60.89;99729.98;184417;1234;45899;-81
2023/07/20 15:57:51;;;;;;;3.60;1.20;;;;;;;23.73;61.50;99735.43;184563;1234;44854;-82
2023/07/20 16:01:52;;;;;;;1.20;0.70;;;;;;;23.59;61.25;99746.29;184678;1234;59222;-81
2023/07/20 16:05:56;;;;;;;1.50;0.50;;;;;;;23.54;62.54;99740.73;184546;1237;46131;-82
2023/07/20 16:10:02;;;;;;;1.40;0.60;;;;;;;23.46;62.36;99743.63;184510;1233;45625;-82
2023/07/20 16:14:06;;;;;;;3.50;0.80;;;;;;;23.50;61.25;99742.69;184460;1237;45942;-81
2023/07/20 16:18:08;;;;;;;1.50;0.40;;;;;;;23.59;61.39;99742.48;184185;1236;45966;-81
2023/07/20 16:22:11;;;;;;;1.70;1.30;;;;;;;23.71;61.44;99741.80;184400;1232;57886;-81
2023/07/20 16:26:13;;;;;;;1.00;0.90;;;;;;;23.75;61.35;99739.02;184356;1232;43823;-81
2023/07/20 16:30:15;;;;;;;1.30;0.90;;;;;;;23.61;62.42;99745.95;185105;1233;44631;-81
2023/07/20 16:34:18;;;;;;;2.10;0.80;;;;;;;23.49;62.68;99748.89;184595;1237;43721;-82
2023/07/20 16:38:20;;;;;;;1.80;1.00;;;;;;;23.46;64.01;99751.05;185011;1234;44567;-83
2023/07/20 16:42:23;;;;;;;1.10;0.70;;;;;;;23.48;62.99;99753.29;184855;1234;58003;-82
2023/07/20 16:46:28;;;;;;;0.70;0.60;;;;;;;23.61;63.05;99752.86;185008;1233;46046;-82
2023/07/20 16:50:33;;;;;;;0.40;0.40;;;;;;;23.44;63.28;99763.84;185172;1232;46640;-83
2023/07/20 16:54:35;;;;;;;1.30;0.90;;;;;;;23.16;64.43;99771.66;185224;1232;44068;-82
2023/07/20 16:58:37;;;;;;;1.00;0.70;;;;;;;22.99;65.79;99769.05;185283;1236;46065;-83
2023/07/20 17:02:40;;;;;;;3.30;1.00;;;;;;;22.94;66.82;99771.17;185108;1236;58020;-80
2023/07/20 17:06:42;;;;;;;1.60;1.20;;;;;;;22.91;66.67;99771.08;184399;1234;44780;-82
2023/07/20 17:10:43;;;;;;;1.30;0.90;;;;;;;22.82;67.50;99777.02;184912;1233;45834;-84
2023/07/20 17:14:44;;;;;;;4.90;1.50;;;;;;;22.84;68.55;99780.04;184738;1233;46008;-82
2023/07/20 17:18:47;;;;;;;1.80;1.30;;;;;;;22.90;68.60;99779.92;185057;1233;44746;-82
2023/07/20 17:22:51;;;;;;;1.50;1.00;;;;;;;22.83;67.82;99779.54;184963;1233;57803;-83
2023/07/20 17:26:53;;;;;;;3.10;1.20;;;;;;;22.75;67.22;99781.98;185254;1234;45932;-83
2023/07/20 17:31:15;;;;;;;2.70;0.70;;;;;;;22.63;67.25;99778.42;185404;1233;46015;-82
2023/07/20 17:35:16;;;;;;;0.80;0.70;;;;;;;22.43;66.24;99775.81;184803;1233;44796;-82
2023/07/20 17:39:18;;;;;;;1.00;0.70;;;;;;;22.43;67.17;99776.46;185034;1236;46042;-82
2023/07/20 17:43:19;;;;;;;1.70;1.20;;;;;;;22.29;67.04;99780.00;185388;1233;57908;-82
2023/07/20 17:47:21;;;;;;;1.40;0.90;;;;;;;22.26;67.77;99779.02;185076;1232;44028;-82
2023/07/20 17:51:22;;;;;;;0.90;0.60;;;;;;;22.08;68.02;99780.54;185039;1236;46002;-81
2023/07/20 17:55:24;;;;;;;1.40;0.90;;;;;;;21.95;67.43;99781.17;184948;1234;46096;-82
2023/07/20 17:59:26;;;;;;;1.70;0.90;;;;;;;21.90;67.03;99784.04;184938;1234;44738;-82
2023/07/20 18:03:28;;;;;;;1.00;0.90;;;;;;;21.87;67.32;99781.11;184818;1233;57839;-82
2023/07/20 18:07:29;;;;;;;2.10;1.20;;;;;;;21.90;67.36;99782.95;184825;1234;46170;-82
2023/07/20 18:11:31;;;;;;;0.60;0.60;;;;;;;21.78;67.11;99787.97;184465;1233;44697;-81
2023/07/20 18:15:32;;;;;;;0.90;0.50;;;;;;;21.72;67.73;99788.32;185016;1236;46113;-81
2023/07/20 18:19:34;;;;;;;1.80;0.80;;;;;;;21.63;68.07;99787.53;184309;1234;46024;-81
2023/07/20 18:23:36;;;;;;;1.60;1.20;;;;;;;21.50;68.61;99791.11;184107;1233;59384;-81
2023/07/20 18:27:38;;;;;;;1.80;0.90;;;;;;;21.53;69.12;99796.35;184172;1237;46431;-81
2023/07/20 18:31:39;;;;;;;2.40;0.90;;;;;;;21.51;69.85;99799.14;184140;1234;46064;-81
2023/07/20 18:35:41;;;;;;;1.90;1.40;;;;;;;21.42;70.13;99803.48;184327;1234;45848;-81
2023/07/20 18:39:44;;;;;;;0.80;0.60;;;;;;;21.27;70.22;99806.69;183896;1234;44970;-81
2023/07/20 18:43:46;;;;;;;2.90;1.00;;;;;;;21.08;70.92;99813.10;184029;1232;59753;-81